Time;durP1;ratioP1;P1;durP2;ratioP2;P2;SDS_P1;SDS_P2;PMS_P1;PMS_P2;Temp;Humidity;BMP_temperature;BMP_pressure;BME280_temperature;BME280_humidity;BME280_pressure;Samples;Min_cycle;Max_cycle;Signal;HPM_P1;HPM_P2
2022/04/28 00:00:43;;;;;;;;;;;9.70;99.90;;;;;;5013236;28;20371;-78
2022/04/28 00:03:10;;;;;;;;;;;9.60;99.90;;;;;;5011998;28;19932;-78
2022/04/28 00:05:36;;;;;;;;;;;9.60;99.90;;;;;;5013180;28;19940;-78
2022/04/28 00:08:02;;;;;;;;;;;9.60;99.90;;;;;;4995580;28;19933;-78
2022/04/28 00:10:27;;;;;;;;;;;9.50;99.90;;;;;;5011954;28;19925;-78
2022/04/28 00:12:53;;;;;;;;;;;9.40;99.90;;;;;;5028567;28;19933;-78
2022/04/28 00:15:18;;;;;;;;;;;9.40;99.90;;;;;;5013073;28;20028;-78
2022/04/28 00:17:44;;;;;;;;;;;9.40;99.90;;;;;;5012865;28;19929;-77
2022/04/28 00:20:10;;;;;;;;;;;9.30;99.90;;;;;;5011481;28;20012;-78
2022/04/28 00:22:36;;;;;;;;;;;9.40;99.90;;;;;;5011969;28;19925;-78
2022/04/28 00:25:02;;;;;;;;;;;9.40;99.90;;;;;;4995145;28;20429;-78
2022/04/28 00:27:29;;;;;;;;;;;9.40;99.90;;;;;;5012426;28;19960;-78
2022/04/28 00:29:55;;;;;;;;;;;9.40;99.90;;;;;;5010245;28;19933;-77
2022/04/28 00:32:21;;;;;;;;;;;9.40;99.90;;;;;;5013396;28;19996;-78
2022/04/28 00:34:49;;;;;;;;;;;9.30;99.90;;;;;;5011344;28;20365;-78
2022/04/28 00:37:15;;;;;;;;;;;9.30;99.90;;;;;;5011550;28;20447;-78
2022/04/28 00:39:41;;;;;;;;;;;9.30;99.90;;;;;;5011096;28;19925;-78
2022/04/28 00:42:10;;;;;;;;;;;9.20;99.90;;;;;;5012728;28;19992;-78
2022/04/28 00:44:36;;;;;;;;;;;9.20;99.90;;;;;;5027830;28;19937;-78
2022/04/28 00:47:01;;;;;;;;;;;9.20;99.90;;;;;;5012891;28;19926;-78
2022/04/28 00:52:11;;;;;;;;;;;9.20;99.90;;;;;;5045078;28;20020;-78
2022/04/28 00:54:37;;;;;;;;;;;9.20;99.90;;;;;;5047640;28;20330;-78
2022/04/28 00:57:03;;;;;;;;;;;9.20;99.90;;;;;;5048711;28;19933;-78
2022/04/28 00:59:29;;;;;;;;;;;9.30;99.90;;;;;;5048390;28;19930;-75
2022/04/28 01:01:54;;;;;;;;;;;9.20;99.90;;;;;;5016487;28;19939;-78
2022/04/28 01:04:20;;;;;;;;;;;9.20;99.90;;;;;;5016673;28;19929;-78
2022/04/28 01:06:46;;;;;;;;;;;9.20;99.90;;;;;;5015107;28;19933;-78
2022/04/28 01:09:12;;;;;;;;;;;9.20;99.90;;;;;;5048146;28;20041;-78
2022/04/28 01:11:40;;;;;;;;;;;9.20;99.90;;;;;;5015736;28;19971;-78
2022/04/28 01:14:06;;;;;;;;;;;9.20;99.90;;;;;;5016381;28;19926;-78
2022/04/28 01:16:32;;;;;;;;;;;9.20;99.90;;;;;;5031673;28;20393;-78
2022/04/28 01:18:58;;;;;;;;;;;9.20;99.90;;;;;;5012513;28;20012;-78
2022/04/28 01:21:24;;;;;;;;;;;9.20;99.90;;;;;;5015571;28;20398;-78
2022/04/28 01:23:50;;;;;;;;;;;9.30;99.90;;;;;;5014984;28;19965;-78
2022/04/28 01:26:16;;;;;;;;;;;9.30;99.90;;;;;;5015224;28;19926;-78
2022/04/28 01:28:42;;;;;;;;;;;9.30;99.90;;;;;;5015614;28;19933;-78
2022/04/28 01:31:07;;;;;;;;;;;9.30;99.90;;;;;;5016032;28;20019;-78
2022/04/28 01:33:33;;;;;;;;;;;9.30;99.90;;;;;;5015527;28;20016;-76
2022/04/28 01:35:58;;;;;;;;;;;9.30;99.90;;;;;;5016389;28;20374;-78
2022/04/28 01:38:24;;;;;;;;;;;9.20;99.90;;;;;;5014725;28;20358;-76
2022/04/28 01:40:50;;;;;;;;;;;9.20;99.90;;;;;;5015493;28;19930;-78
2022/04/28 01:43:15;;;;;;;;;;;9.20;99.90;;;;;;5014190;28;19925;-78
2022/04/28 01:45:41;;;;;;;;;;;9.20;99.90;;;;;;5014183;28;19980;-78
2022/04/28 01:48:07;;;;;;;;;;;9.20;99.90;;;;;;5015045;28;20296;-78
2022/04/28 01:50:32;;;;;;;;;;;9.30;99.90;;;;;;5015708;28;20016;-78
2022/04/28 01:55:42;;;;;;;;;;;9.30;99.90;;;;;;5015720;28;19929;-78
2022/04/28 01:58:08;;;;;;;;;;;9.30;99.90;;;;;;5015737;28;19972;-78
2022/04/28 02:00:34;;;;;;;;;;;9.20;99.90;;;;;;5015742;28;20024;-78
2022/04/28 02:02:59;;;;;;;;;;;9.30;99.90;;;;;;5032680;28;19926;-78
2022/04/28 02:05:25;;;;;;;;;;;9.20;99.90;;;;;;5026076;28;20414;-78
2022/04/28 02:07:51;;;;;;;;;;;9.20;99.90;;;;;;5033098;28;20370;-78
2022/04/28 02:10:16;;;;;;;;;;;9.20;99.90;;;;;;5022850;28;20002;-78
2022/04/28 02:12:42;;;;;;;;;;;9.20;99.90;;;;;;5033482;28;20382;-78
2022/04/28 02:15:08;;;;;;;;;;;9.20;99.90;;;;;;5021016;28;20355;-78
2022/04/28 02:17:35;;;;;;;;;;;9.20;99.90;;;;;;5010079;28;19926;-78
2022/04/28 02:20:05;;;;;;;;;;;9.10;99.90;;;;;;5014166;28;19929;-78
2022/04/28 02:22:31;;;;;;;;;;;9.20;99.90;;;;;;4997163;28;19930;-78
2022/04/28 02:24:57;;;;;;;;;;;9.20;99.90;;;;;;5013325;28;19932;-78
2022/04/28 02:27:24;;;;;;;;;;;9.20;99.90;;;;;;5011333;28;19925;-77
2022/04/28 02:29:50;;;;;;;;;;;9.20;99.90;;;;;;5030451;28;19929;-78
2022/04/28 02:32:16;;;;;;;;;;;9.20;99.90;;;;;;5013971;28;20025;-78
2022/04/28 02:34:42;;;;;;;;;;;9.20;99.90;;;;;;5014231;28;20016;-78
2022/04/28 02:37:07;;;;;;;;;;;9.20;99.90;;;;;;5013764;28;19964;-78
2022/04/28 02:39:33;;;;;;;;;;;9.20;99.90;;;;;;5013557;28;19925;-78
2022/04/28 02:41:58;;;;;;;;;;;9.30;99.90;;;;;;5013787;28;19953;-78
2022/04/28 02:44:24;;;;;;;;;;;9.20;99.90;;;;;;4997363;28;20289;-78
2022/04/28 02:46:50;;;;;;;;;;;9.20;99.90;;;;;;5014108;28;19937;-78
2022/04/28 02:49:15;;;;;;;;;;;9.20;99.90;;;;;;5013683;28;19925;-77
2022/04/28 02:51:42;;;;;;;;;;;9.20;99.90;;;;;;5014717;28;19933;-76
2022/04/28 02:54:08;;;;;;;;;;;9.20;99.90;;;;;;5014476;28;20011;-78
2022/04/28 02:56:34;;;;;;;;;;;9.20;99.90;;;;;;5030231;28;20028;-78
2022/04/28 02:58:59;;;;;;;;;;;9.20;99.90;;;;;;5012671;28;19973;-77
2022/04/28 03:01:26;;;;;;;;;;;9.20;99.90;;;;;;5013357;28;20016;-78
2022/04/28 03:03:52;;;;;;;;;;;9.20;99.90;;;;;;5029544;28;19926;-78
2022/04/28 03:11:48;;;;;;;;;;;9.30;99.90;;;;;;5012760;28;19925;-78
2022/04/28 03:14:14;;;;;;;;;;;9.30;99.90;;;;;;5014128;28;19925;-78
2022/04/28 03:16:40;;;;;;;;;;;9.30;99.90;;;;;;5012601;28;19925;-78
2022/04/28 03:19:06;;;;;;;;;;;9.20;99.90;;;;;;5028794;28;20371;-78
2022/04/28 03:21:32;;;;;;;;;;;9.30;99.90;;;;;;5013255;28;20386;-78
2022/04/28 03:23:57;;;;;;;;;;;9.20;99.90;;;;;;5013541;28;20024;-78
2022/04/28 03:26:23;;;;;;;;;;;9.30;99.90;;;;;;5011318;28;20001;-78
2022/04/28 03:28:48;;;;;;;;;;;9.30;99.90;;;;;;5012560;28;19948;-78
2022/04/28 03:31:14;;;;;;;;;;;9.30;99.90;;;;;;5013492;28;20648;-78
2022/04/28 03:33:40;;;;;;;;;;;9.30;99.90;;;;;;5013993;28;20016;-78
2022/04/28 03:36:50;;;;;;;;;;;9.30;99.90;;;;;;5012518;28;19952;-78
2022/04/28 03:38:51;;;;;;;;;;;9.30;99.90;;;;;;5013329;28;19929;-78
2022/04/28 03:41:17;;;;;;;;;;;9.30;99.90;;;;;;5013600;28;19926;-78
2022/04/28 03:43:44;;;;;;;;;;;9.30;99.90;;;;;;5012336;28;19925;-78
2022/04/28 03:46:11;;;;;;;;;;;9.30;99.90;;;;;;5013266;28;19983;-78
2022/04/28 03:48:37;;;;;;;;;;;9.30;99.90;;;;;;5012363;28;19925;-78
2022/04/28 03:51:03;;;;;;;;;;;9.30;99.90;;;;;;5013466;28;19930;-77
2022/04/28 03:53:29;;;;;;;;;;;9.20;99.90;;;;;;5013409;28;20300;-78
2022/04/28 03:55:55;;;;;;;;;;;9.20;99.90;;;;;;5013115;28;20410;-78
2022/04/28 03:58:20;;;;;;;;;;;9.20;99.90;;;;;;5013532;28;19930;-77
2022/04/28 04:00:49;;;;;;;;;;;9.20;99.90;;;;;;5013361;28;19932;-77
2022/04/28 04:03:15;;;;;;;;;;;9.20;99.90;;;;;;5011997;28;19926;-78
2022/04/28 04:05:41;;;;;;;;;;;9.10;99.90;;;;;;5013246;28;19925;-78
2022/04/28 04:08:06;;;;;;;;;;;9.10;99.90;;;;;;5013112;28;19949;-78
2022/04/28 04:10:32;;;;;;;;;;;9.10;99.90;;;;;;5011964;28;19929;-78
2022/04/28 04:12:57;;;;;;;;;;;9.00;99.90;;;;;;5011983;28;20361;-78
2022/04/28 04:15:23;;;;;;;;;;;8.90;99.90;;;;;;5011677;28;19948;-78
2022/04/28 04:17:49;;;;;;;;;;;8.90;99.90;;;;;;5012014;28;19995;-78
2022/04/28 04:20:15;;;;;;;;;;;8.80;99.90;;;;;;5011677;28;19952;-77
2022/04/28 04:22:41;;;;;;;;;;;8.80;99.90;;;;;;5012304;28;19929;-78
2022/04/28 04:25:07;;;;;;;;;;;8.70;99.90;;;;;;5012317;28;19972;-78
2022/04/28 04:27:33;;;;;;;;;;;8.70;99.90;;;;;;5010002;28;19926;-77
2022/04/28 04:29:58;;;;;;;;;;;8.70;99.90;;;;;;5006787;28;19925;-78
2022/04/28 04:32:27;;;;;;;;;;;8.70;99.90;;;;;;5004487;28;19925;-78
2022/04/28 04:34:53;;;;;;;;;;;8.70;99.90;;;;;;5027314;28;19926;-76
2022/04/28 04:37:19;;;;;;;;;;;8.70;99.90;;;;;;5006134;28;19925;-77
2022/04/28 04:39:44;;;;;;;;;;;8.70;99.90;;;;;;5002696;28;19979;-78
2022/04/28 04:42:10;;;;;;;;;;;8.70;99.90;;;;;;5012612;28;19936;-78
2022/04/28 04:44:36;;;;;;;;;;;8.70;99.90;;;;;;5010209;28;19932;-78
2022/04/28 04:47:01;;;;;;;;;;;8.70;99.90;;;;;;5008412;28;19925;-77
2022/04/28 04:49:27;;;;;;;;;;;8.70;99.90;;;;;;5002786;28;19926;-78
2022/04/28 04:51:52;;;;;;;;;;;8.80;99.90;;;;;;4999854;28;19973;-78
2022/04/28 04:54:20;;;;;;;;;;;8.80;99.90;;;;;;5005059;28;20601;-78
2022/04/28 04:56:45;;;;;;;;;;;8.80;99.90;;;;;;5008451;28;20373;-78
2022/04/28 04:59:11;;;;;;;;;;;8.80;99.90;;;;;;5012532;28;20016;-78
2022/04/28 05:01:37;;;;;;;;;;;8.90;99.90;;;;;;5012612;28;19932;-78
2022/04/28 05:04:02;;;;;;;;;;;8.90;99.90;;;;;;5012638;28;20378;-78
2022/04/28 05:06:28;;;;;;;;;;;8.90;99.90;;;;;;5011308;28;19957;-78
2022/04/28 05:08:53;;;;;;;;;;;9.00;99.90;;;;;;5011062;28;19940;-78
2022/04/28 05:11:19;;;;;;;;;;;8.90;99.90;;;;;;5011754;28;19987;-78
2022/04/28 05:13:45;;;;;;;;;;;9.00;99.90;;;;;;5011135;28;19934;-77
2022/04/28 05:16:10;;;;;;;;;;;8.90;99.90;;;;;;5009038;28;19926;-78
2022/04/28 05:18:36;;;;;;;;;;;9.00;99.90;;;;;;5012464;28;20364;-78
2022/04/28 05:21:03;;;;;;;;;;;9.00;99.90;;;;;;5009465;28;20264;-78
2022/04/28 05:23:29;;;;;;;;;;;9.00;99.90;;;;;;5012482;28;19925;-77
2022/04/28 05:25:54;;;;;;;;;;;9.00;99.90;;;;;;5009069;28;19933;-77
2022/04/28 05:28:20;;;;;;;;;;;9.00;99.90;;;;;;5009908;28;19925;-78
2022/04/28 05:30:46;;;;;;;;;;;9.00;99.90;;;;;;4994406;28;20362;-78
2022/04/28 05:33:12;;;;;;;;;;;9.00;99.90;;;;;;5011278;28;19932;-78
2022/04/28 05:35:40;;;;;;;;;;;9.10;99.90;;;;;;4973631;28;20370;-78
2022/04/28 05:38:07;;;;;;;;;;;9.10;99.90;;;;;;4992618;28;19933;-78
2022/04/28 05:40:33;;;;;;;;;;;9.20;99.90;;;;;;5007857;28;19926;-78
2022/04/28 05:45:43;;;;;;;;;;;9.20;99.90;;;;;;5011147;28;19977;-78
2022/04/28 05:48:09;;;;;;;;;;;9.20;99.90;;;;;;5034361;28;20676;-78
2022/04/28 05:50:35;;;;;;;;;;;9.20;99.90;;;;;;5012426;28;19948;-78
2022/04/28 05:53:01;;;;;;;;;;;9.20;99.90;;;;;;5009079;28;19980;-78
2022/04/28 05:55:26;;;;;;;;;;;9.20;99.90;;;;;;5010550;28;19953;-78
2022/04/28 05:57:52;;;;;;;;;;;9.10;99.90;;;;;;5007135;28;19933;-78
2022/04/28 06:00:17;;;;;;;;;;;9.10;99.90;;;;;;5006592;28;19940;-78
2022/04/28 06:02:43;;;;;;;;;;;9.10;99.90;;;;;;5014146;28;19925;-78
2022/04/28 06:05:09;;;;;;;;;;;9.10;99.90;;;;;;5019450;28;19973;-77
2022/04/28 06:07:34;;;;;;;;;;;9.10;99.90;;;;;;5046143;28;19933;-78
2022/04/28 06:10:00;;;;;;;;;;;9.20;99.90;;;;;;5015345;28;19956;-77
2022/04/28 06:12:27;;;;;;;;;;;9.20;99.90;;;;;;5012986;28;19979;-75
2022/04/28 06:14:54;;;;;;;;;;;9.20;99.90;;;;;;5006812;28;19933;-76
2022/04/28 06:17:19;;;;;;;;;;;9.30;99.90;;;;;;5014808;28;19930;-75
2022/04/28 06:19:45;;;;;;;;;;;9.40;99.90;;;;;;5006573;28;20302;-75
2022/04/28 06:22:11;;;;;;;;;;;9.50;99.90;;;;;;5005520;28;19934;-75
2022/04/28 06:24:37;;;;;;;;;;;9.70;99.90;;;;;;5006287;28;19933;-75
2022/04/28 06:27:03;;;;;;;;;;;9.80;99.90;;;;;;4999236;28;19926;-74
2022/04/28 06:29:28;;;;;;;;;;;9.90;99.90;;;;;;5011496;28;19926;-75
2022/04/28 06:31:54;;;;;;;;;;;10.00;99.90;;;;;;5037746;28;19932;-75
2022/04/28 06:34:19;;;;;;;;;;;10.00;99.90;;;;;;5013338;28;19941;-75
2022/04/28 06:36:45;;;;;;;;;;;9.90;99.90;;;;;;5006087;28;19934;-76
2022/04/28 06:39:10;;;;;;;;;;;9.80;99.90;;;;;;5008967;28;19926;-75
2022/04/28 06:41:36;;;;;;;;;;;9.70;99.90;;;;;;4988766;28;19933;-75
2022/04/28 06:44:02;;;;;;;;;;;9.60;99.90;;;;;;5011307;28;19925;-74
2022/04/28 06:46:28;;;;;;;;;;;9.50;99.90;;;;;;5015416;28;19957;-76
2022/04/28 06:48:53;;;;;;;;;;;9.50;99.90;;;;;;5014510;28;19932;-78
2022/04/28 06:51:19;;;;;;;;;;;9.60;99.90;;;;;;5005814;28;20511;-79
2022/04/28 06:53:44;;;;;;;;;;;9.60;99.90;;;;;;5002969;28;19933;-76
2022/04/28 06:56:10;;;;;;;;;;;9.70;99.90;;;;;;5013296;28;19929;-76
2022/04/28 06:58:37;;;;;;;;;;;9.80;99.90;;;;;;5013007;28;19980;-76
2022/04/28 07:01:03;;;;;;;;;;;9.80;99.90;;;;;;5013337;28;19929;-76
2022/04/28 07:03:29;;;;;;;;;;;9.90;99.90;;;;;;5012585;28;19929;-76
2022/04/28 07:05:54;;;;;;;;;;;10.00;99.90;;;;;;5013107;28;20290;-76
2022/04/28 07:08:20;;;;;;;;;;;10.10;99.90;;;;;;5012926;28;19930;-76
2022/04/28 07:10:45;;;;;;;;;;;10.10;99.90;;;;;;5013541;28;20378;-76
2022/04/28 07:13:11;;;;;;;;;;;10.10;99.90;;;;;;5013305;28;20008;-75
2022/04/28 07:15:38;;;;;;;;;;;10.10;99.90;;;;;;5012208;28;19992;-76
2022/04/28 07:18:04;;;;;;;;;;;10.10;99.90;;;;;;5029521;28;19952;-76
2022/04/28 07:20:31;;;;;;;;;;;10.10;99.90;;;;;;4995249;28;20653;-76
2022/04/28 07:22:59;;;;;;;;;;;10.20;99.90;;;;;;5013753;28;19972;-76
2022/04/28 07:25:25;;;;;;;;;;;10.20;99.90;;;;;;5011364;28;19938;-76
2022/04/28 07:27:50;;;;;;;;;;;10.10;99.90;;;;;;5012435;28;20259;-76
2022/04/28 07:30:17;;;;;;;;;;;10.10;99.90;;;;;;5012947;28;19949;-76
2022/04/28 07:32:43;;;;;;;;;;;10.10;99.90;;;;;;4995026;28;19926;-75
2022/04/28 07:35:09;;;;;;;;;;;10.20;99.90;;;;;;5020919;28;19941;-76
2022/04/28 07:37:35;;;;;;;;;;;10.40;99.90;;;;;;5012240;28;19945;-76
2022/04/28 07:40:00;;;;;;;;;;;10.50;99.90;;;;;;5030628;28;19936;-75
2022/04/28 07:42:26;;;;;;;;;;;10.60;99.90;;;;;;5012289;28;20440;-76
2022/04/28 07:44:51;;;;;;;;;;;10.60;99.90;;;;;;5011922;28;19925;-76
2022/04/28 07:47:17;;;;;;;;;;;10.60;99.90;;;;;;5013111;28;19925;-76
2022/04/28 07:49:42;;;;;;;;;;;10.70;99.90;;;;;;5012594;28;20385;-76
2022/04/28 07:52:08;;;;;;;;;;;10.80;99.90;;;;;;5012377;28;20012;-76
2022/04/28 07:54:34;;;;;;;;;;;10.90;99.90;;;;;;5012757;28;19944;-76
2022/04/28 07:56:59;;;;;;;;;;;11.00;99.90;;;;;;5008293;28;19925;-75
2022/04/28 07:59:25;;;;;;;;;;;11.00;99.90;;;;;;5009373;28;19934;-74
2022/04/28 08:01:51;;;;;;;;;;;11.00;99.90;;;;;;5031060;28;19980;-75
2022/04/28 08:04:17;;;;;;;;;;;11.10;99.90;;;;;;5005191;28;19930;-75
2022/04/28 08:06:42;;;;;;;;;;;11.00;99.90;;;;;;5001434;28;19980;-75
2022/04/28 08:09:08;;;;;;;;;;;11.00;99.90;;;;;;5007008;28;19996;-75
2022/04/28 08:11:33;;;;;;;;;;;11.10;99.90;;;;;;4996477;28;19925;-75
2022/04/28 08:13:59;;;;;;;;;;;11.10;99.90;;;;;;5010872;28;20385;-74
2022/04/28 08:16:24;;;;;;;;;;;11.20;99.90;;;;;;5012509;28;19941;-74
2022/04/28 08:18:50;;;;;;;;;;;11.30;99.90;;;;;;4995484;28;20414;-77
2022/04/28 08:21:16;;;;;;;;;;;11.30;99.90;;;;;;5010879;28;19925;-74
2022/04/28 08:23:41;;;;;;;;;;;11.30;99.90;;;;;;5014595;28;19925;-74
2022/04/28 08:26:07;;;;;;;;;;;11.20;99.90;;;;;;5014363;28;20377;-74
2022/04/28 08:28:33;;;;;;;;;;;11.10;99.90;;;;;;5026977;28;19925;-74
2022/04/28 08:30:59;;;;;;;;;;;11.10;99.90;;;;;;5013161;28;19926;-74
2022/04/28 08:33:24;;;;;;;;;;;11.00;99.90;;;;;;5011681;28;19976;-74
2022/04/28 08:35:50;;;;;;;;;;;11.00;99.90;;;;;;5012101;28;19929;-77
2022/04/28 08:38:15;;;;;;;;;;;11.10;99.90;;;;;;5013002;28;20390;-77
2022/04/28 08:40:43;;;;;;;;;;;11.10;99.90;;;;;;5012612;28;19949;-77
2022/04/28 08:43:09;;;;;;;;;;;11.10;99.90;;;;;;4999170;28;19986;-77
2022/04/28 08:45:39;;;;;;;;;;;11.20;99.90;;;;;;5012636;28;19933;-77
2022/04/28 08:48:06;;;;;;;;;;;11.10;99.90;;;;;;5011995;28;20348;-75
2022/04/28 08:50:32;;;;;;;;;;;11.20;99.90;;;;;;5008711;28;19930;-75
2022/04/28 08:52:58;;;;;;;;;;;11.40;99.90;;;;;;5005971;28;19935;-74
2022/04/28 08:55:23;;;;;;;;;;;11.50;99.90;;;;;;5011621;28;19929;-75
2022/04/28 08:57:49;;;;;;;;;;;11.60;99.90;;;;;;5012846;28;19933;-75
2022/04/28 09:00:15;;;;;;;;;;;11.60;99.90;;;;;;5011635;28;19937;-75
2022/04/28 09:02:41;;;;;;;;;;;11.60;99.90;;;;;;5010647;28;19932;-75
2022/04/28 09:05:08;;;;;;;;;;;11.50;99.90;;;;;;5012876;28;19976;-76
2022/04/28 09:07:35;;;;;;;;;;;11.60;99.90;;;;;;5009507;28;19984;-76
2022/04/28 09:10:00;;;;;;;;;;;11.60;99.90;;;;;;4994343;28;20016;-76
2022/04/28 09:12:26;;;;;;;;;;;11.60;99.90;;;;;;5011123;28;20004;-75
2022/04/28 09:14:55;;;;;;;;;;;11.70;99.90;;;;;;5013993;28;20442;-77
2022/04/28 09:17:21;;;;;;;;;;;11.80;99.90;;;;;;5016131;28;19965;-77
2022/04/28 09:19:46;;;;;;;;;;;11.80;99.90;;;;;;5011972;28;20409;-77
2022/04/28 09:22:13;;;;;;;;;;;11.90;99.90;;;;;;5015560;28;20337;-78
2022/04/28 09:24:40;;;;;;;;;;;12.00;99.90;;;;;;5022946;28;19929;-77
2022/04/28 09:27:07;;;;;;;;;;;12.00;99.90;;;;;;4997558;28;19937;-76
2022/04/28 09:29:43;;;;;;;;;;;12.10;99.90;;;;;;5016554;28;19969;-76
2022/04/28 09:32:10;;;;;;;;;;;12.20;99.90;;;;;;5029033;28;19925;-76
2022/04/28 09:34:44;;;;;;;;;;;12.40;99.90;;;;;;5022268;28;19983;-76
2022/04/28 09:37:14;;;;;;;;;;;12.40;99.90;;;;;;4998361;28;19930;-79
2022/04/28 09:42:31;;;;;;;;;;;12.20;99.90;;;;;;5014284;28;19925;-76
2022/04/28 09:44:59;;;;;;;;;;;12.00;99.90;;;;;;5014033;28;19929;-76
2022/04/28 09:47:25;;;;;;;;;;;11.90;99.90;;;;;;5014637;28;20336;-76
2022/04/28 09:49:57;;;;;;;;;;;11.80;99.90;;;;;;5010195;28;20337;-77
2022/04/28 09:52:26;;;;;;;;;;;11.90;99.90;;;;;;5005982;28;20441;-77
2022/04/28 09:54:52;;;;;;;;;;;11.90;99.90;;;;;;5005591;28;19925;-75
2022/04/28 09:57:20;;;;;;;;;;;11.90;99.90;;;;;;5005756;28;19980;-77
2022/04/28 09:59:50;;;;;;;;;;;12.00;99.90;;;;;;5004677;28;19976;-76
2022/04/28 10:02:17;;;;;;;;;;;12.20;99.90;;;;;;5005290;28;20403;-77
2022/04/28 10:04:43;;;;;;;;;;;12.30;99.90;;;;;;5012829;28;19976;-75
2022/04/28 10:07:09;;;;;;;;;;;12.20;99.90;;;;;;5005461;28;19925;-76
2022/04/28 10:09:38;;;;;;;;;;;12.10;99.90;;;;;;5013602;28;19975;-77
2022/04/28 10:12:05;;;;;;;;;;;12.30;99.90;;;;;;5006046;28;19930;-77
2022/04/28 10:14:33;;;;;;;;;;;12.30;99.90;;;;;;5004786;28;19925;-76
2022/04/28 10:17:00;;;;;;;;;;;12.30;99.90;;;;;;5008223;28;19963;-76
2022/04/28 10:19:29;;;;;;;;;;;12.40;99.90;;;;;;5004145;28;20445;-76
2022/04/28 10:21:54;;;;;;;;;;;12.40;99.90;;;;;;5006777;28;19926;-76
2022/04/28 10:32:55;;;;;;;;;;;12.40;99.90;;;;;;5006767;28;19976;-75
2022/04/28 10:35:33;;;;;;;;;;;12.30;99.90;;;;;;5005864;28;19965;-76
2022/04/28 10:38:17;;;;;;;;;;;12.40;99.90;;;;;;5013715;28;19932;-76
2022/04/28 10:41:01;;;;;;;;;;;12.50;99.90;;;;;;5012661;28;20382;-76
2022/04/28 10:43:30;;;;;;;;;;;12.50;99.90;;;;;;5013574;28;19929;-76
2022/04/28 10:45:56;;;;;;;;;;;12.50;99.90;;;;;;5014341;28;19936;-75
2022/04/28 10:48:32;;;;;;;;;;;12.40;99.90;;;;;;5015966;28;20562;-76
2022/04/28 10:51:17;;;;;;;;;;;12.30;99.90;;;;;;5013283;28;19933;-76
2022/04/28 10:54:01;;;;;;;;;;;12.30;99.90;;;;;;4996539;28;19960;-75
2022/04/28 10:56:39;;;;;;;;;;;12.20;99.90;;;;;;4994687;28;19925;-76
2022/04/28 10:59:24;;;;;;;;;;;12.20;99.90;;;;;;5018032;28;19933;-76
2022/04/28 11:01:50;;;;;;;;;;;12.10;99.90;;;;;;5010883;28;19925;-76
2022/04/28 11:04:16;;;;;;;;;;;12.40;99.90;;;;;;5002197;28;19937;-76
2022/04/28 11:06:46;;;;;;;;;;;12.50;99.90;;;;;;5024357;28;19976;-75
2022/04/28 11:09:11;;;;;;;;;;;12.70;99.90;;;;;;5025192;28;19932;-76
2022/04/28 11:11:45;;;;;;;;;;;12.70;99.90;;;;;;5013453;28;19929;-76
2022/04/28 11:14:11;;;;;;;;;;;12.60;99.90;;;;;;5013064;28;19930;-76
2022/04/28 11:16:38;;;;;;;;;;;12.60;99.90;;;;;;5006923;28;20338;-76
2022/04/28 11:19:07;;;;;;;;;;;12.60;99.90;;;;;;5009051;28;19926;-81
2022/04/28 11:21:34;;;;;;;;;;;12.50;99.90;;;;;;5004588;28;19925;-76
2022/04/28 11:24:00;;;;;;;;;;;12.50;99.90;;;;;;5000476;28;19929;-77
2022/04/28 11:26:29;;;;;;;;;;;12.50;99.90;;;;;;4993484;28;20004;-77
2022/04/28 11:28:55;;;;;;;;;;;12.40;99.90;;;;;;4992251;28;20689;-77
2022/04/28 11:31:20;;;;;;;;;;;12.50;99.90;;;;;;5010352;28;19952;-77
2022/04/28 11:33:47;;;;;;;;;;;12.50;99.90;;;;;;4995984;28;19926;-77
2022/04/28 11:36:33;;;;;;;;;;;12.60;99.90;;;;;;4976195;28;19976;-77
2022/04/28 11:39:03;;;;;;;;;;;12.70;99.90;;;;;;4992932;28;19969;-77
2022/04/28 11:41:38;;;;;;;;;;;12.60;99.90;;;;;;5004821;28;19925;-77
2022/04/28 11:44:08;;;;;;;;;;;12.50;99.90;;;;;;5028597;28;20341;-77
2022/04/28 11:46:34;;;;;;;;;;;12.50;99.90;;;;;;4995783;28;19969;-77
2022/04/28 11:49:00;;;;;;;;;;;12.70;99.90;;;;;;4995789;28;19930;-77
2022/04/28 11:51:25;;;;;;;;;;;12.70;99.90;;;;;;5013046;28;20020;-77
2022/04/28 11:53:53;;;;;;;;;;;12.70;99.90;;;;;;5012300;28;19931;-77
2022/04/28 11:56:24;;;;;;;;;;;12.80;99.90;;;;;;5022292;28;20345;-77
2022/04/28 11:58:50;;;;;;;;;;;12.90;99.90;;;;;;5012925;28;19977;-77
2022/04/28 12:01:16;;;;;;;;;;;13.00;99.90;;;;;;5011162;28;20352;-77
2022/04/28 12:03:55;;;;;;;;;;;13.00;99.90;;;;;;5047753;28;19933;-77
2022/04/28 12:06:21;;;;;;;;;;;13.00;99.90;;;;;;5020602;28;19936;-76
2022/04/28 12:08:47;;;;;;;;;;;13.10;99.90;;;;;;5012384;28;19940;-78
2022/04/28 12:19:28;;;;;;;;;;;13.70;99.90;;;;;;5026125;28;19926;-76
2022/04/28 12:22:00;;;;;;;;;;;13.90;99.90;;;;;;5027971;28;19965;-77
2022/04/28 12:24:30;;;;;;;;;;;14.00;99.90;;;;;;5011153;28;20345;-77
2022/04/28 12:26:55;;;;;;;;;;;14.00;99.90;;;;;;5010873;28;19980;-77
2022/04/28 12:29:21;;;;;;;;;;;13.70;99.90;;;;;;5013110;28;19930;-77
2022/04/28 12:31:54;;;;;;;;;;;13.70;99.90;;;;;;5011263;28;19971;-76
2022/04/28 12:34:23;;;;;;;;;;;13.40;99.90;;;;;;5011740;28;19947;-76
2022/04/28 12:36:58;;;;;;;;;;;13.30;99.90;;;;;;4992897;28;19972;-76
2022/04/28 12:39:26;;;;;;;;;;;13.30;99.90;;;;;;5008327;28;19925;-76
2022/04/28 12:41:52;;;;;;;;;;;13.40;99.90;;;;;;5007956;28;19926;-77
2022/04/28 12:44:18;;;;;;;;;;;13.30;99.90;;;;;;5004249;28;19972;-76
2022/04/28 12:46:46;;;;;;;;;;;13.30;99.90;;;;;;5010625;28;19929;-76
2022/04/28 12:49:13;;;;;;;;;;;13.40;99.90;;;;;;5010767;28;19976;-76
2022/04/28 12:51:44;;;;;;;;;;;13.60;99.90;;;;;;5023513;28;19925;-76
2022/04/28 12:54:32;;;;;;;;;;;14.20;99.90;;;;;;5031730;28;19955;-77
2022/04/28 12:57:03;;;;;;;;;;;14.20;99.90;;;;;;5018776;28;19929;-77
2022/04/28 12:59:35;;;;;;;;;;;14.50;99.90;;;;;;5011615;28;19925;-77
2022/04/28 13:02:00;;;;;;;;;;;14.30;99.90;;;;;;5011831;28;19999;-76
2022/04/28 13:04:26;;;;;;;;;;;14.20;99.90;;;;;;5011883;28;19925;-78
2022/04/28 13:06:52;;;;;;;;;;;14.20;99.90;;;;;;5010871;28;20005;-77
2022/04/28 13:09:19;;;;;;;;;;;14.10;99.90;;;;;;5008905;28;19933;-75
2022/04/28 13:11:45;;;;;;;;;;;13.90;99.90;;;;;;4991084;28;20000;-76
2022/04/28 13:14:21;;;;;;;;;;;14.00;99.90;;;;;;5015915;28;20073;-76
2022/04/28 13:16:47;;;;;;;;;;;14.10;99.90;;;;;;5006571;28;19948;-79
2022/04/28 13:19:13;;;;;;;;;;;14.40;99.90;;;;;;5027731;28;20421;-76
2022/04/28 13:21:39;;;;;;;;;;;14.40;99.90;;;;;;5005923;28;20365;-76
2022/04/28 13:24:05;;;;;;;;;;;14.50;99.90;;;;;;5008509;28;19925;-75
2022/04/28 13:26:31;;;;;;;;;;;14.70;99.90;;;;;;5027467;28;19929;-75
2022/04/28 13:28:58;;;;;;;;;;;14.70;99.90;;;;;;5026504;28;20271;-75
2022/04/28 13:31:24;;;;;;;;;;;14.50;99.90;;;;;;5012050;28;19980;-75
2022/04/28 13:33:50;;;;;;;;;;;15.10;99.90;;;;;;5011966;28;19926;-75
2022/04/28 13:36:16;;;;;;;;;;;15.20;99.90;;;;;;5011231;28;19969;-75
2022/04/28 13:38:42;;;;;;;;;;;14.80;99.90;;;;;;5016295;28;19926;-75
2022/04/28 13:41:08;;;;;;;;;;;14.80;99.90;;;;;;5011173;28;19925;-75
2022/04/28 13:43:34;;;;;;;;;;;14.70;99.90;;;;;;5011185;28;19925;-75
2022/04/28 13:46:01;;;;;;;;;;;14.60;99.90;;;;;;5010615;28;19945;-75
2022/04/28 13:48:26;;;;;;;;;;;14.50;99.90;;;;;;5035062;28;19926;-75
2022/04/28 13:50:52;;;;;;;;;;;14.60;99.90;;;;;;5011773;28;19933;-75
2022/04/28 13:53:18;;;;;;;;;;;14.50;99.90;;;;;;5026899;28;19975;-76
2022/04/28 13:55:45;;;;;;;;;;;14.20;99.90;;;;;;5011252;28;19933;-75
2022/04/28 13:58:11;;;;;;;;;;;14.30;99.90;;;;;;5016814;28;19976;-75
2022/04/28 14:00:36;;;;;;;;;;;14.10;99.90;;;;;;5012386;28;19925;-75
2022/04/28 14:03:02;;;;;;;;;;;14.20;99.90;;;;;;5030579;28;19932;-75
2022/04/28 14:05:27;;;;;;;;;;;14.10;99.90;;;;;;5015610;28;19925;-75
2022/04/28 14:07:53;;;;;;;;;;;13.90;99.90;;;;;;5013861;28;19972;-75
2022/04/28 14:10:19;;;;;;;;;;;13.90;99.90;;;;;;5013482;28;19925;-75
2022/04/28 14:12:45;;;;;;;;;;;14.20;99.90;;;;;;5014419;28;20476;-75
2022/04/28 14:15:12;;;;;;;;;;;14.60;99.90;;;;;;5030262;28;19926;-75
2022/04/28 14:17:39;;;;;;;;;;;15.50;99.90;;;;;;5013721;28;20386;-75
2022/04/28 14:20:06;;;;;;;;;;;15.90;99.50;;;;;;5013749;28;19936;-76
2022/04/28 14:22:32;;;;;;;;;;;15.80;99.20;;;;;;5011042;28;19929;-75
2022/04/28 14:24:58;;;;;;;;;;;15.90;98.70;;;;;;5014817;28;19925;-76
2022/04/28 14:27:24;;;;;;;;;;;15.80;99.10;;;;;;5014924;28;19933;-75
2022/04/28 14:29:49;;;;;;;;;;;15.60;98.80;;;;;;5014327;28;19971;-75
2022/04/28 14:32:15;;;;;;;;;;;15.20;98.70;;;;;;5013490;28;19958;-75
2022/04/28 14:34:41;;;;;;;;;;;14.90;98.90;;;;;;5013829;28;19976;-75
2022/04/28 14:37:06;;;;;;;;;;;15.00;99.90;;;;;;5014189;28;19932;-75
2022/04/28 14:39:33;;;;;;;;;;;16.10;99.80;;;;;;5013516;28;20408;-76
2022/04/28 14:41:59;;;;;;;;;;;17.40;98.30;;;;;;5014921;28;19958;-76
2022/04/28 14:44:24;;;;;;;;;;;18.50;94.20;;;;;;5012863;28;19933;-76
2022/04/28 14:46:51;;;;;;;;;;;18.50;86.90;;;;;;5013849;28;19936;-76
2022/04/28 14:52:19;;;;;;;;;;;18.80;83.10;;;;;;5013692;28;19973;-76
2022/04/28 14:54:54;;;;;;;;;;;18.90;83.20;;;;;;4997320;28;19929;-76
2022/04/28 14:57:24;;;;;;;;;;;18.50;82.30;;;;;;5014121;28;19973;-75